Time;durP1;ratioP1;P1;durP2;ratioP2;P2;SDS_P1;SDS_P2;PMS_P1;PMS_P2;Temp;Humidity;BMP_temperature;BMP_pressure;BME280_temperature;BME280_humidity;BME280_pressure;Samples;Min_cycle;Max_cycle;Signal;HPM_P1;HPM_P2
2024/04/25 00:01:03;;;;;;;;;;;;;;;;;;5272504;26;87631;-73
2024/04/25 00:03:28;;;;;;;;;;;;;;;;;;5269359;26;86671;-72
2024/04/25 00:05:53;;;;;;;;;;;;;;;;;;5269226;26;87212;-69
2024/04/25 00:08:18;;;;;;;;;;;;;;;;;;5325246;26;88876;-70
2024/04/25 00:10:48;;;;;;;;;;;;;;;;;;5269744;26;87546;-72
2024/04/25 00:13:13;;;;;;;;;;;;;;;;;;5269578;26;86547;-73
2024/04/25 00:15:38;;;;;;;;;;;;;;;;;;5266994;26;90075;-73
2024/04/25 00:18:03;;;;;;;;;;;;;;;;;;5267762;26;86792;-73
2024/04/25 00:20:28;;;;;;;;;;;;;;;;;;5269440;26;86939;-70
2024/04/25 00:22:54;;;;;;;;;;;;;;;;;;5273633;26;87603;-70
2024/04/25 00:25:19;;;;;;;;;;;;;;;;;;5303689;26;87099;-70
2024/04/25 00:27:44;;;;;;;;;;;;;;;;;;5303655;26;86575;-71
2024/04/25 00:30:09;;;;;;;;;;;;;;;;;;5302965;26;86670;-68
2024/04/25 00:32:34;;;;;;;;;;;;;;;;;;5302383;26;87116;-72
2024/04/25 00:35:02;;;;;;;;;;;;;;;;;;5302709;26;87347;-69
2024/04/25 00:37:27;;;;;;;;;;;;;;;;;;5281696;26;86968;-68
2024/04/25 00:39:54;;;;;;;;;;;;;;;;;;5268564;26;87347;-73
2024/04/25 00:42:20;;;;;;;;;;;;;;;;;;5268129;26;87421;-70
2024/04/25 00:44:46;;;;;;;;;;;;;;;;;;5271591;26;87819;-69
2024/04/25 00:47:12;;;;;;;;;;;;;;;;;;5268400;26;88688;-70
2024/04/25 00:49:37;;;;;;;;;;;;;;;;;;5268494;26;87685;-72
2024/04/25 00:52:03;;;;;;;;;;;;;;;;;;5268335;26;86651;-70
2024/04/25 00:54:29;;;;;;;;;;;;;;;;;;5268527;26;87799;-70
2024/04/25 00:56:54;;;;;;;;;;;;;;;;;;5268073;26;86911;-69
2024/04/25 00:59:22;;;;;;;;;;;;;;;;;;5268787;26;86956;-70
2024/04/25 01:01:48;;;;;;;;;;;;;;;;;;5271447;26;87405;-72
2024/04/25 01:04:14;;;;;;;;;;;;;;;;;;5273971;26;87360;-73
2024/04/25 01:06:40;;;;;;;;;;;;;;;;;;5270864;26;86933;-73
2024/04/25 01:09:05;;;;;;;;;;;;;;;;;;5270725;26;87032;-72
2024/04/25 01:11:33;;;;;;;;;;;;;;;;;;5298333;26;86916;-70
2024/04/25 01:13:58;;;;;;;;;;;;;;;;;;5271170;26;86683;-70
2024/04/25 01:16:23;;;;;;;;;;;;;;;;;;5270924;26;88003;-73
2024/04/25 01:18:48;;;;;;;;;;;;;;;;;;5271827;26;87860;-73
2024/04/25 01:21:14;;;;;;;;;;;;;;;;;;5271180;26;88186;-73
2024/04/25 01:23:40;;;;;;;;;;;;;;;;;;5270784;26;87204;-74
2024/04/25 01:26:06;;;;;;;;;;;;;;;;;;5274266;26;86568;-73
2024/04/25 01:28:32;;;;;;;;;;;;;;;;;;5270854;26;86980;-72
2024/04/25 01:30:57;;;;;;;;;;;;;;;;;;5270392;26;87053;-73
2024/04/25 01:33:23;;;;;;;;;;;;;;;;;;5271135;26;87367;-73
2024/04/25 01:35:48;;;;;;;;;;;;;;;;;;5271518;26;86750;-73
2024/04/25 01:38:14;;;;;;;;;;;;;;;;;;5298042;26;87992;-72
2024/04/25 01:40:39;;;;;;;;;;;;;;;;;;5271796;26;87224;-72
2024/04/25 01:43:05;;;;;;;;;;;;;;;;;;5271173;26;87144;-73
2024/04/25 01:45:30;;;;;;;;;;;;;;;;;;5270164;26;86521;-73
2024/04/25 01:47:55;;;;;;;;;;;;;;;;;;5273846;26;86578;-73
2024/04/25 01:50:20;;;;;;;;;;;;;;;;;;5270171;26;86612;-72
2024/04/25 01:52:46;;;;;;;;;;;;;;;;;;5268367;26;89953;-73
2024/04/25 01:55:11;;;;;;;;;;;;;;;;;;5270160;26;87080;-72
2024/04/25 01:57:36;;;;;;;;;;;;;;;;;;5270826;26;86524;-73
2024/04/25 02:00:02;;;;;;;;;;;;;;;;;;5271099;26;88154;-71
2024/04/25 02:02:27;;;;;;;;;;;;;;;;;;5270671;26;86934;-69
2024/04/25 02:04:52;;;;;;;;;;;;;;;;;;5270761;26;86529;-70
2024/04/25 02:07:17;;;;;;;;;;;;;;;;;;5270940;26;87369;-73
2024/04/25 02:09:43;;;;;;;;;;;;;;;;;;5273320;26;86703;-70
2024/04/25 02:12:08;;;;;;;;;;;;;;;;;;5269735;26;86917;-70
2024/04/25 02:14:33;;;;;;;;;;;;;;;;;;5270541;26;86638;-70
2024/04/25 02:16:58;;;;;;;;;;;;;;;;;;5270576;26;86570;-73
2024/04/25 02:19:24;;;;;;;;;;;;;;;;;;5270338;26;87405;-69
2024/04/25 02:27:18;;;;;;;;;;;;;;;;;;5270823;26;86410;-72
2024/04/25 02:29:43;;;;;;;;;;;;;;;;;;5270470;26;86666;-71
2024/04/25 02:32:08;;;;;;;;;;;;;;;;;;5291502;26;86650;-69
2024/04/25 02:34:33;;;;;;;;;;;;;;;;;;5304457;26;86807;-72
2024/04/25 02:36:58;;;;;;;;;;;;;;;;;;5289941;26;86671;-70
2024/04/25 02:39:24;;;;;;;;;;;;;;;;;;5270391;26;87268;-71
2024/04/25 02:41:49;;;;;;;;;;;;;;;;;;5270583;26;87248;-71
2024/04/25 02:44:14;;;;;;;;;;;;;;;;;;5270408;26;87138;-73
2024/04/25 02:46:39;;;;;;;;;;;;;;;;;;5268817;26;89767;-72
2024/04/25 02:49:04;;;;;;;;;;;;;;;;;;5270453;26;86655;-73
2024/04/25 02:51:31;;;;;;;;;;;;;;;;;;5270038;26;86660;-73
2024/04/25 02:53:56;;;;;;;;;;;;;;;;;;5273331;26;88273;-71
2024/04/25 02:56:22;;;;;;;;;;;;;;;;;;5267542;26;86664;-73
2024/04/25 02:58:47;;;;;;;;;;;;;;;;;;5270393;26;88433;-73
2024/04/25 03:01:12;;;;;;;;;;;;;;;;;;5268555;26;89154;-72
2024/04/25 03:03:37;;;;;;;;;;;;;;;;;;5268610;26;86924;-72
2024/04/25 03:06:02;;;;;;;;;;;;;;;;;;5270158;26;87346;-73
2024/04/25 03:08:28;;;;;;;;;;;;;;;;;;5268758;26;86682;-73
2024/04/25 03:10:53;;;;;;;;;;;;;;;;;;5269332;26;86788;-70
2024/04/25 03:13:18;;;;;;;;;;;;;;;;;;5272952;26;87247;-72
2024/04/25 03:15:43;;;;;;;;;;;;;;;;;;5269947;26;86500;-72
2024/04/25 03:18:08;;;;;;;;;;;;;;;;;;5269953;26;87235;-73
2024/04/25 03:20:37;;;;;;;;;;;;;;;;;;5267635;26;88370;-72
2024/04/25 03:23:02;;;;;;;;;;;;;;;;;;5269583;26;86508;-71
2024/04/25 03:25:27;;;;;;;;;;;;;;;;;;5270184;26;87410;-69
2024/04/25 03:27:52;;;;;;;;;;;;;;;;;;5269598;26;86688;-72
2024/04/25 03:30:18;;;;;;;;;;;;;;;;;;5270281;26;86515;-73
2024/04/25 03:32:43;;;;;;;;;;;;;;;;;;5269255;26;88584;-73
2024/04/25 03:35:08;;;;;;;;;;;;;;;;;;5272654;26;87227;-72
2024/04/25 03:37:33;;;;;;;;;;;;;;;;;;5268867;26;88817;-73
2024/04/25 03:39:59;;;;;;;;;;;;;;;;;;5269851;26;86945;-73
2024/04/25 03:42:24;;;;;;;;;;;;;;;;;;5269157;26;86873;-72
2024/04/25 03:44:49;;;;;;;;;;;;;;;;;;5296969;26;87244;-73
2024/04/25 03:47:14;;;;;;;;;;;;;;;;;;5269460;26;86980;-73
2024/04/25 03:49:39;;;;;;;;;;;;;;;;;;5270066;26;86688;-72
2024/04/25 03:52:05;;;;;;;;;;;;;;;;;;5269713;26;87274;-73
2024/04/25 03:54:30;;;;;;;;;;;;;;;;;;5269871;26;87022;-73
2024/04/25 03:56:57;;;;;;;;;;;;;;;;;;5272083;26;87089;-73
2024/04/25 03:59:22;;;;;;;;;;;;;;;;;;5268933;26;86631;-70
2024/04/25 04:01:47;;;;;;;;;;;;;;;;;;5270115;26;86470;-72
2024/04/25 04:04:12;;;;;;;;;;;;;;;;;;5269343;26;87336;-70
2024/04/25 04:06:38;;;;;;;;;;;;;;;;;;5259978;26;87071;-70
2024/04/25 04:09:03;;;;;;;;;;;;;;;;;;5310008;26;87083;-71
2024/04/25 04:11:28;;;;;;;;;;;;;;;;;;5255724;26;87346;-69
2024/04/25 04:13:54;;;;;;;;;;;;;;;;;;5253083;26;86871;-69
2024/04/25 04:16:19;;;;;;;;;;;;;;;;;;5235806;26;86900;-71
2024/04/25 04:18:44;;;;;;;;;;;;;;;;;;5311621;26;88192;-69
2024/04/25 04:21:09;;;;;;;;;;;;;;;;;;5253235;26;86856;-69
2024/04/25 04:23:35;;;;;;;;;;;;;;;;;;5253322;26;87381;-72
2024/04/25 04:26:00;;;;;;;;;;;;;;;;;;5255536;26;86688;-72
2024/04/25 04:28:25;;;;;;;;;;;;;;;;;;5250667;26;86982;-72
2024/04/25 04:30:50;;;;;;;;;;;;;;;;;;5252193;26;87249;-72
2024/04/25 04:33:15;;;;;;;;;;;;;;;;;;5268698;26;87827;-73
2024/04/25 04:35:41;;;;;;;;;;;;;;;;;;5237663;26;86742;-73
2024/04/25 04:38:06;;;;;;;;;;;;;;;;;;5261123;26;87089;-72
2024/04/25 04:40:31;;;;;;;;;;;;;;;;;;5258288;26;87474;-72
2024/04/25 04:42:56;;;;;;;;;;;;;;;;;;5239739;26;87950;-72
2024/04/25 04:45:21;;;;;;;;;;;;;;;;;;5253404;26;87415;-71
2024/04/25 04:47:47;;;;;;;;;;;;;;;;;;5255467;26;86535;-73
2024/04/25 04:50:12;;;;;;;;;;;;;;;;;;5255396;26;87206;-73
2024/04/25 04:52:37;;;;;;;;;;;;;;;;;;5255939;26;87559;-72
2024/04/25 04:55:03;;;;;;;;;;;;;;;;;;5252512;26;86879;-73
2024/04/25 04:57:28;;;;;;;;;;;;;;;;;;5252210;26;87276;-73
2024/04/25 04:59:53;;;;;;;;;;;;;;;;;;5250739;26;89508;-72
2024/04/25 05:02:19;;;;;;;;;;;;;;;;;;5250235;26;86699;-71
2024/04/25 05:04:44;;;;;;;;;;;;;;;;;;5251864;26;88051;-72
2024/04/25 05:07:09;;;;;;;;;;;;;;;;;;5312467;26;87669;-71
2024/04/25 05:09:34;;;;;;;;;;;;;;;;;;5254393;26;88423;-71
2024/04/25 05:12:00;;;;;;;;;;;;;;;;;;5246065;26;87438;-72
2024/04/25 05:14:25;;;;;;;;;;;;;;;;;;5256732;26;87618;-71
2024/04/25 05:16:50;;;;;;;;;;;;;;;;;;5261554;26;89187;-73
2024/04/25 05:19:15;;;;;;;;;;;;;;;;;;5279344;26;87819;-73
2024/04/25 05:21:43;;;;;;;;;;;;;;;;;;5257432;26;88524;-73
2024/04/25 05:24:08;;;;;;;;;;;;;;;;;;5250645;26;87267;-73
2024/04/25 05:26:33;;;;;;;;;;;;;;;;;;5252316;26;86482;-73
2024/04/25 05:28:58;;;;;;;;;;;;;;;;;;5250608;26;88161;-73
2024/04/25 05:31:24;;;;;;;;;;;;;;;;;;5244616;26;87032;-72
2024/04/25 05:33:50;;;;;;;;;;;;;;;;;;5254545;26;88010;-73
2024/04/25 05:36:15;;;;;;;;;;;;;;;;;;5262258;26;87599;-73
2024/04/25 05:38:40;;;;;;;;;;;;;;;;;;5248244;26;88095;-73
2024/04/25 05:41:05;;;;;;;;;;;;;;;;;;5244707;26;87823;-72
2024/04/25 05:43:31;;;;;;;;;;;;;;;;;;5255230;26;87088;-74
2024/04/25 05:45:56;;;;;;;;;;;;;;;;;;5256654;26;87250;-69
2024/04/25 05:48:21;;;;;;;;;;;;;;;;;;5310060;26;89737;-68
2024/04/25 05:50:46;;;;;;;;;;;;;;;;;;5260921;26;88364;-70
2024/04/25 05:53:12;;;;;;;;;;;;;;;;;;5252511;26;88430;-71
2024/04/25 05:55:39;;;;;;;;;;;;;;;;;;5265228;26;87550;-73
2024/04/25 05:58:04;;;;;;;;;;;;;;;;;;5260648;26;87055;-70
2024/04/25 06:00:30;;;;;;;;;;;;;;;;;;5294381;26;87085;-70
2024/04/25 06:02:55;;;;;;;;;;;;;;;;;;5267581;26;88432;-70
2024/04/25 06:05:21;;;;;;;;;;;;;;;;;;5271924;26;87570;-69
2024/04/25 06:07:46;;;;;;;;;;;;;;;;;;5265130;26;86940;-70
2024/04/25 06:10:11;;;;;;;;;;;;;;;;;;5267664;26;88354;-69
2024/04/25 06:12:36;;;;;;;;;;;;;;;;;;5266402;26;87149;-70
2024/04/25 06:15:02;;;;;;;;;;;;;;;;;;5267376;26;88057;-70
2024/04/25 06:17:27;;;;;;;;;;;;;;;;;;5266969;26;88697;-69
2024/04/25 06:19:52;;;;;;;;;;;;;;;;;;5268767;26;86975;-69
2024/04/25 06:22:17;;;;;;;;;;;;;;;;;;5253954;26;87175;-71
2024/04/25 06:24:42;;;;;;;;;;;;;;;;;;5258813;26;87789;-70
2024/04/25 06:27:08;;;;;;;;;;;;;;;;;;5253814;26;87035;-70
2024/04/25 06:29:33;;;;;;;;;;;;;;;;;;5266886;26;87729;-70
2024/04/25 06:31:58;;;;;;;;;;;;;;;;;;5258167;26;86675;-70
2024/04/25 06:34:23;;;;;;;;;;;;;;;;;;5265674;26;88082;-72
2024/04/25 06:36:49;;;;;;;;;;;;;;;;;;5269130;26;87026;-70
2024/04/25 06:39:16;;;;;;;;;;;;;;;;;;5265070;26;87101;-71
2024/04/25 06:41:41;;;;;;;;;;;;;;;;;;5251732;26;87845;-73
2024/04/25 06:44:06;;;;;;;;;;;;;;;;;;5257439;26;88465;-71
2024/04/25 06:46:31;;;;;;;;;;;;;;;;;;5251430;26;87536;-69
2024/04/25 06:48:57;;;;;;;;;;;;;;;;;;5261282;26;87142;-71
2024/04/25 06:51:22;;;;;;;;;;;;;;;;;;5260858;26;86678;-68
2024/04/25 06:53:48;;;;;;;;;;;;;;;;;;5262150;26;87372;-71
2024/04/25 06:56:13;;;;;;;;;;;;;;;;;;5252012;26;89163;-69
2024/04/25 06:58:38;;;;;;;;;;;;;;;;;;5247149;26;86533;-70
2024/04/25 07:01:04;;;;;;;;;;;;;;;;;;5257524;26;87781;-74
2024/04/25 07:03:29;;;;;;;;;;;;;;;;;;5247734;26;87190;-70
2024/04/25 07:05:54;;;;;;;;;;;;;;;;;;5263274;26;87065;-69
2024/04/25 07:08:21;;;;;;;;;;;;;;;;;;5250625;26;88424;-68
2024/04/25 07:10:46;;;;;;;;;;;;;;;;;;5257834;26;88087;-70
2024/04/25 07:13:11;;;;;;;;;;;;;;;;;;5247920;26;88370;-71
2024/04/25 07:15:37;;;;;;;;;;;;;;;;;;5248048;26;87672;-69
2024/04/25 07:18:06;;;;;;;;;;;;;;;;;;5251721;26;86801;-70
2024/04/25 07:20:32;;;;;;;;;;;;;;;;;;5254049;26;87118;-69
2024/04/25 07:22:57;;;;;;;;;;;;;;;;;;5251492;26;88002;-69
2024/04/25 07:25:22;;;;;;;;;;;;;;;;;;5250442;26;86518;-70
2024/04/25 07:27:47;;;;;;;;;;;;;;;;;;5280455;26;89999;-69
2024/04/25 07:30:13;;;;;;;;;;;;;;;;;;5256234;26;87999;-68
2024/04/25 07:32:39;;;;;;;;;;;;;;;;;;5252609;26;88631;-68
2024/04/25 07:35:04;;;;;;;;;;;;;;;;;;5257281;26;86827;-69
2024/04/25 07:37:33;;;;;;;;;;;;;;;;;;5278748;26;88335;-70
2024/04/25 07:39:58;;;;;;;;;;;;;;;;;;5259223;26;87319;-68
2024/04/25 07:42:24;;;;;;;;;;;;;;;;;;5251820;26;87252;-68
2024/04/25 07:44:49;;;;;;;;;;;;;;;;;;5242388;26;87146;-70
2024/04/25 07:47:14;;;;;;;;;;;;;;;;;;5250060;26;88891;-71
2024/04/25 07:49:39;;;;;;;;;;;;;;;;;;5264503;26;87535;-70
2024/04/25 07:52:06;;;;;;;;;;;;;;;;;;5266104;26;87783;-71
2024/04/25 07:54:31;;;;;;;;;;;;;;;;;;5255199;26;86652;-72
2024/04/25 07:56:57;;;;;;;;;;;;;;;;;;5265158;26;87311;-70
2024/04/25 07:59:22;;;;;;;;;;;;;;;;;;5308210;26;90194;-71
2024/04/25 08:01:47;;;;;;;;;;;;;;;;;;5252568;26;86814;-71
2024/04/25 08:04:13;;;;;;;;;;;;;;;;;;5253064;26;86440;-71
2024/04/25 08:06:38;;;;;;;;;;;;;;;;;;5241245;26;88444;-71
2024/04/25 08:09:03;;;;;;;;;;;;;;;;;;5277263;26;87819;-71
2024/04/25 08:11:28;;;;;;;;;;;;;;;;;;5245855;26;87120;-75
2024/04/25 08:13:54;;;;;;;;;;;;;;;;;;5253763;26;87479;-70
2024/04/25 08:16:19;;;;;;;;;;;;;;;;;;5250675;26;86651;-68
2024/04/25 08:18:44;;;;;;;;;;;;;;;;;;5267277;26;88369;-71
2024/04/25 08:21:09;;;;;;;;;;;;;;;;;;5265306;26;87704;-70
2024/04/25 08:23:35;;;;;;;;;;;;;;;;;;5264308;26;87114;-70
2024/04/25 08:26:01;;;;;;;;;;;;;;;;;;5260113;26;88436;-70
2024/04/25 08:28:27;;;;;;;;;;;;;;;;;;5262008;26;86971;-71
2024/04/25 08:30:52;;;;;;;;;;;;;;;;;;5260753;26;88973;-70
2024/04/25 08:33:17;;;;;;;;;;;;;;;;;;5257586;26;87798;-70
2024/04/25 08:35:43;;;;;;;;;;;;;;;;;;5255609;26;87345;-69
2024/04/25 08:38:08;;;;;;;;;;;;;;;;;;5260478;26;88087;-69
2024/04/25 08:40:33;;;;;;;;;;;;;;;;;;5258230;26;87166;-69
2024/04/25 08:42:59;;;;;;;;;;;;;;;;;;5250630;26;87153;-69
2024/04/25 08:45:24;;;;;;;;;;;;;;;;;;5246416;26;87885;-69
2024/04/25 08:47:50;;;;;;;;;;;;;;;;;;5250960;26;87699;-69
2024/04/25 08:50:16;;;;;;;;;;;;;;;;;;5247544;26;87361;-69
2024/04/25 08:52:43;;;;;;;;;;;;;;;;;;5254170;26;88597;-69
2024/04/25 08:55:08;;;;;;;;;;;;;;;;;;5247368;26;87337;-69
2024/04/25 08:57:34;;;;;;;;;;;;;;;;;;5249403;26;87046;-69
2024/04/25 08:59:59;;;;;;;;;;;;;;;;;;5247079;26;87123;-69
2024/04/25 09:02:25;;;;;;;;;;;;;;;;;;5250144;26;87040;-69
2024/04/25 09:04:53;;;;;;;;;;;;;;;;;;5243103;26;87136;-68
2024/04/25 09:07:19;;;;;;;;;;;;;;;;;;5247225;26;86952;-69
2024/04/25 09:09:44;;;;;;;;;;;;;;;;;;5242301;26;89758;-69
2024/04/25 09:12:09;;;;;;;;;;;;;;;;;;5248091;26;88995;-69
2024/04/25 09:14:35;;;;;;;;;;;;;;;;;;5249021;26;87102;-68
2024/04/25 09:17:00;;;;;;;;;;;;;;;;;;5249249;26;86639;-69
2024/04/25 09:19:26;;;;;;;;;;;;;;;;;;5252378;26;86694;-69
2024/04/25 09:21:51;;;;;;;;;;;;;;;;;;5239007;26;87655;-69
2024/04/25 09:24:16;;;;;;;;;;;;;;;;;;5253544;26;88454;-68
2024/04/25 09:26:43;;;;;;;;;;;;;;;;;;5252145;26;87101;-68
2024/04/25 09:29:09;;;;;;;;;;;;;;;;;;5254098;26;87223;-69
2024/04/25 09:31:35;;;;;;;;;;;;;;;;;;5250749;26;88778;-69
2024/04/25 09:34:01;;;;;;;;;;;;;;;;;;5250980;26;86995;-69
2024/04/25 09:36:27;;;;;;;;;;;;;;;;;;5252054;26;87310;-69
2024/04/25 09:38:53;;;;;;;;;;;;;;;;;;5248720;26;87932;-69
2024/04/25 09:41:18;;;;;;;;;;;;;;;;;;5253641;26;87272;-70
2024/04/25 09:43:43;;;;;;;;;;;;;;;;;;5258435;26;87589;-69
2024/04/25 09:46:14;;;;;;;;;;;;;;;;;;5264965;26;87293;-69
2024/04/25 09:48:42;;;;;;;;;;;;;;;;;;5250024;26;86625;-69
2024/04/25 09:51:21;;;;;;;;;;;;;;;;;;5254545;26;87445;-70
2024/04/25 09:53:52;;;;;;;;;;;;;;;;;;5257164;26;87102;-69
2024/04/25 09:56:21;;;;;;;;;;;;;;;;;;5259643;26;86679;-69
2024/04/25 09:58:51;;;;;;;;;;;;;;;;;;5253839;26;87879;-69
2024/04/25 10:01:16;;;;;;;;;;;;;;;;;;5242700;26;87249;-69
2024/04/25 10:03:42;;;;;;;;;;;;;;;;;;5258193;26;87417;-69
2024/04/25 10:06:08;;;;;;;;;;;;;;;;;;5283748;26;87773;-69
2024/04/25 10:08:34;;;;;;;;;;;;;;;;;;5258574;26;87219;-69
2024/04/25 10:11:00;;;;;;;;;;;;;;;;;;5247529;26;88427;-70
2024/04/25 10:13:25;;;;;;;;;;;;;;;;;;5251115;26;87220;-69
2024/04/25 10:15:56;;;;;;;;;;;;;;;;;;5309991;26;86677;-69
2024/04/25 10:18:21;;;;;;;;;;;;;;;;;;5295420;26;90540;-70
2024/04/25 10:20:57;;;;;;;;;;;;;;;;;;5252643;26;87831;-70
2024/04/25 10:23:29;;;;;;;;;;;;;;;;;;5261859;26;87347;-69
2024/04/25 10:25:55;;;;;;;;;;;;;;;;;;5249129;26;88126;-70
2024/04/25 10:28:21;;;;;;;;;;;;;;;;;;5249725;26;87083;-73
2024/04/25 10:30:54;;;;;;;;;;;;;;;;;;5248116;26;87736;-70
2024/04/25 10:33:19;;;;;;;;;;;;;;;;;;5250244;26;87141;-69
2024/04/25 10:35:45;;;;;;;;;;;;;;;;;;5254504;26;87156;-73
2024/04/25 10:38:18;;;;;;;;;;;;;;;;;;5250433;26;88505;-71
2024/04/25 10:40:44;;;;;;;;;;;;;;;;;;5253912;26;88302;-73
2024/04/25 10:43:09;;;;;;;;;;;;;;;;;;5250974;26;87387;-72
2024/04/25 10:45:36;;;;;;;;;;;;;;;;;;5257249;26;87931;-69
2024/04/25 10:48:01;;;;;;;;;;;;;;;;;;5265027;26;88164;-67
2024/04/25 10:50:27;;;;;;;;;;;;;;;;;;5258762;26;87916;-67
2024/04/25 10:52:53;;;;;;;;;;;;;;;;;;5254127;26;86810;-71
2024/04/25 10:55:18;;;;;;;;;;;;;;;;;;5267312;26;86650;-68
2024/04/25 10:57:43;;;;;;;;;;;;;;;;;;5267707;26;87279;-68
2024/04/25 11:00:09;;;;;;;;;;;;;;;;;;5266310;26;88478;-68
2024/04/25 11:02:34;;;;;;;;;;;;;;;;;;5270288;26;87388;-68
2024/04/25 11:04:59;;;;;;;;;;;;;;;;;;5255465;26;86756;-68
2024/04/25 11:07:25;;;;;;;;;;;;;;;;;;5256610;26;86969;-69
2024/04/25 11:09:50;;;;;;;;;;;;;;;;;;5241407;26;87515;-68
2024/04/25 11:12:16;;;;;;;;;;;;;;;;;;5252036;26;86892;-69
2024/04/25 11:14:41;;;;;;;;;;;;;;;;;;5253943;26;87168;-69
2024/04/25 11:17:06;;;;;;;;;;;;;;;;;;5263186;26;87438;-69
2024/04/25 11:19:32;;;;;;;;;;;;;;;;;;5264745;26;87137;-68
2024/04/25 11:21:57;;;;;;;;;;;;;;;;;;5250943;26;87110;-69
2024/04/25 11:24:23;;;;;;;;;;;;;;;;;;5251081;26;88366;-69
2024/04/25 11:26:49;;;;;;;;;;;;;;;;;;5267136;26;87957;-68
2024/04/25 11:29:15;;;;;;;;;;;;;;;;;;5259157;26;87655;-68
2024/04/25 11:31:41;;;;;;;;;;;;;;;;;;5255418;26;88035;-68
2024/04/25 11:34:16;;;;;;;;;;;;;;;;;;5265784;26;87896;-68
2024/04/25 11:42:48;;;;;;;;;;;;;;;;;;5253310;26;87120;-69
2024/04/25 11:45:13;;;;;;;;;;;;;;;;;;5249084;26;87065;-69
2024/04/25 11:47:38;;;;;;;;;;;;;;;;;;5258990;26;87133;-69
2024/04/25 11:50:05;;;;;;;;;;;;;;;;;;5261684;26;87415;-69
2024/04/25 11:52:30;;;;;;;;;;;;;;;;;;5255992;26;87666;-69
2024/04/25 11:54:55;;;;;;;;;;;;;;;;;;5261702;26;88177;-68
2024/04/25 11:57:21;;;;;;;;;;;;;;;;;;5258074;26;87904;-69
2024/04/25 11:59:46;;;;;;;;;;;;;;;;;;5252753;26;87715;-69
2024/04/25 12:02:13;;;;;;;;;;;;;;;;;;5258079;26;88708;-69
2024/04/25 12:04:38;;;;;;;;;;;;;;;;;;5262610;26;87607;-69
2024/04/25 12:07:03;;;;;;;;;;;;;;;;;;5263321;26;87242;-69
2024/04/25 12:09:28;;;;;;;;;;;;;;;;;;5264829;26;86977;-68
2024/04/25 12:11:54;;;;;;;;;;;;;;;;;;5263419;26;87725;-69
2024/04/25 12:14:19;;;;;;;;;;;;;;;;;;5266522;26;87782;-69
2024/04/25 12:16:44;;;;;;;;;;;;;;;;;;5267459;26;87579;-69
2024/04/25 12:19:09;;;;;;;;;;;;;;;;;;5257660;26;89338;-68
2024/04/25 12:21:35;;;;;;;;;;;;;;;;;;5270918;26;87427;-68
2024/04/25 12:24:00;;;;;;;;;;;;;;;;;;5251139;26;88837;-69
2024/04/25 12:26:26;;;;;;;;;;;;;;;;;;5252299;26;88654;-68
2024/04/25 12:28:51;;;;;;;;;;;;;;;;;;5250879;26;87765;-68
2024/04/25 12:31:16;;;;;;;;;;;;;;;;;;5276676;26;88764;-67
2024/04/25 12:33:42;;;;;;;;;;;;;;;;;;5254266;26;87330;-68
2024/04/25 12:36:08;;;;;;;;;;;;;;;;;;5238354;26;88917;-68
2024/04/25 12:38:33;;;;;;;;;;;;;;;;;;5245823;26;87680;-69
2024/04/25 12:40:58;;;;;;;;;;;;;;;;;;5303219;26;86957;-69
2024/04/25 12:43:24;;;;;;;;;;;;;;;;;;5255069;26;87751;-69
2024/04/25 12:45:51;;;;;;;;;;;;;;;;;;5251234;26;88453;-69
2024/04/25 12:48:16;;;;;;;;;;;;;;;;;;5249460;26;87275;-69
2024/04/25 12:50:41;;;;;;;;;;;;;;;;;;5249026;26;87580;-69
2024/04/25 12:53:07;;;;;;;;;;;;;;;;;;5247253;26;90111;-69
2024/04/25 12:55:32;;;;;;;;;;;;;;;;;;5253330;26;87331;-69
2024/04/25 12:57:57;;;;;;;;;;;;;;;;;;5255495;26;88212;-69
2024/04/25 13:00:24;;;;;;;;;;;;;;;;;;5255195;26;87069;-69
2024/04/25 13:02:49;;;;;;;;;;;;;;;;;;5256158;26;87714;-69
2024/04/25 13:05:14;;;;;;;;;;;;;;;;;;5252733;26;88309;-70
2024/04/25 13:07:40;;;;;;;;;;;;;;;;;;5239729;26;87507;-69
2024/04/25 13:10:06;;;;;;;;;;;;;;;;;;5250037;26;88538;-68
2024/04/25 13:12:31;;;;;;;;;;;;;;;;;;5250056;26;88713;-70
2024/04/25 13:14:56;;;;;;;;;;;;;;;;;;5277601;26;88019;-69
2024/04/25 13:17:21;;;;;;;;;;;;;;;;;;5242469;26;87817;-70
2024/04/25 13:19:46;;;;;;;;;;;;;;;;;;5252592;26;87548;-69
2024/04/25 13:22:12;;;;;;;;;;;;;;;;;;5249922;26;87065;-69
2024/04/25 13:24:38;;;;;;;;;;;;;;;;;;5250108;26;87344;-69
2024/04/25 13:27:03;;;;;;;;;;;;;;;;;;5256975;26;88848;-68
2024/04/25 13:29:28;;;;;;;;;;;;;;;;;;5258819;26;87927;-69
2024/04/25 13:31:53;;;;;;;;;;;;;;;;;;5253812;26;87342;-69
2024/04/25 13:34:21;;;;;;;;;;;;;;;;;;5261977;26;87933;-70
2024/04/25 13:36:47;;;;;;;;;;;;;;;;;;5261915;26;87636;-68
2024/04/25 13:39:13;;;;;;;;;;;;;;;;;;5260866;26;87546;-68
2024/04/25 13:41:38;;;;;;;;;;;;;;;;;;5258356;26;88743;-68
2024/04/25 13:44:03;;;;;;;;;;;;;;;;;;5250981;26;87737;-68
2024/04/25 13:46:30;;;;;;;;;;;;;;;;;;5258974;26;87065;-69
2024/04/25 13:48:55;;;;;;;;;;;;;;;;;;5263440;26;88746;-69
2024/04/25 13:51:21;;;;;;;;;;;;;;;;;;5258754;26;88189;-70
2024/04/25 13:53:46;;;;;;;;;;;;;;;;;;5250359;26;86936;-68
2024/04/25 13:56:11;;;;;;;;;;;;;;;;;;5256310;26;90121;-67
2024/04/25 13:58:37;;;;;;;;;;;;;;;;;;5241259;26;87194;-67
2024/04/25 14:01:02;;;;;;;;;;;;;;;;;;5304837;26;90462;-67
2024/04/25 14:03:27;;;;;;;;;;;;;;;;;;5259033;26;87160;-67
2024/04/25 14:05:52;;;;;;;;;;;;;;;;;;5252348;26;87187;-68
2024/04/25 14:08:17;;;;;;;;;;;;;;;;;;5246413;26;87132;-68
2024/04/25 14:10:43;;;;;;;;;;;;;;;;;;5267173;26;88507;-68
2024/04/25 14:13:08;;;;;;;;;;;;;;;;;;5258403;26;87488;-70
2024/04/25 14:15:33;;;;;;;;;;;;;;;;;;5264834;26;87819;-69
2024/04/25 14:17:58;;;;;;;;;;;;;;;;;;5265882;26;88995;-70
2024/04/25 14:20:24;;;;;;;;;;;;;;;;;;5279225;26;87036;-70
2024/04/25 14:22:49;;;;;;;;;;;;;;;;;;5266042;26;88459;-74
2024/04/25 14:30:42;;;;;;;;;;;;;;;;;;5255838;26;87409;-70
2024/04/25 14:33:07;;;;;;;;;;;;;;;;;;5252992;26;87087;-69
2024/04/25 14:35:32;;;;;;;;;;;;;;;;;;5301572;26;90353;-69
2024/04/25 14:37:58;;;;;;;;;;;;;;;;;;5260507;26;87689;-69
2024/04/25 14:40:25;;;;;;;;;;;;;;;;;;5255261;26;87756;-70
2024/04/25 14:42:50;;;;;;;;;;;;;;;;;;5251794;26;88684;-69
2024/04/25 14:45:16;;;;;;;;;;;;;;;;;;5246084;26;87743;-70
2024/04/25 14:47:41;;;;;;;;;;;;;;;;;;5253584;26;88246;-69
2024/04/25 14:50:08;;;;;;;;;;;;;;;;;;5249999;26;86955;-69
2024/04/25 14:52:33;;;;;;;;;;;;;;;;;;5250481;26;87821;-70
2024/04/25 14:54:59;;;;;;;;;;;;;;;;;;5261588;26;87565;-70
2024/04/25 14:57:24;;;;;;;;;;;;;;;;;;5278450;26;87026;-69
2024/04/25 14:59:49;;;;;;;;;;;;;;;;;;5268949;26;87457;-69
2024/04/25 15:02:14;;;;;;;;;;;;;;;;;;5266850;26;88509;-69
2024/04/25 15:04:39;;;;;;;;;;;;;;;;;;5268511;26;87565;-70
2024/04/25 15:07:05;;;;;;;;;;;;;;;;;;5264926;26;87417;-70
2024/04/25 15:09:30;;;;;;;;;;;;;;;;;;5264755;26;87081;-71
2024/04/25 15:12:05;;;;;;;;;;;;;;;;;;5265299;26;86971;-70
2024/04/25 15:14:30;;;;;;;;;;;;;;;;;;5264022;26;87828;-67
2024/04/25 15:16:55;;;;;;;;;;;;;;;;;;5267949;26;87338;-71
2024/04/25 15:19:21;;;;;;;;;;;;;;;;;;5262997;26;87326;-70
2024/04/25 15:21:46;;;;;;;;;;;;;;;;;;5264202;26;88653;-66
2024/04/25 15:24:11;;;;;;;;;;;;;;;;;;5250212;26;87020;-67
2024/04/25 15:26:38;;;;;;;;;;;;;;;;;;5266033;26;89332;-70
2024/04/25 15:29:03;;;;;;;;;;;;;;;;;;5247513;26;89592;-66
2024/04/25 15:31:28;;;;;;;;;;;;;;;;;;5311877;26;88241;-67
2024/04/25 15:33:53;;;;;;;;;;;;;;;;;;5248871;26;87743;-68
2024/04/25 15:36:18;;;;;;;;;;;;;;;;;;5258463;26;87791;-67
2024/04/25 15:38:44;;;;;;;;;;;;;;;;;;5255624;26;87362;-68
2024/04/25 15:41:11;;;;;;;;;;;;;;;;;;5237820;26;88586;-69
2024/04/25 15:43:37;;;;;;;;;;;;;;;;;;5261060;26;87207;-68
2024/04/25 15:46:03;;;;;;;;;;;;;;;;;;5264027;26;87873;-70
2024/04/25 15:48:28;;;;;;;;;;;;;;;;;;5262668;26;89660;-68
2024/04/25 15:50:53;;;;;;;;;;;;;;;;;;5252609;26;86996;-69
2024/04/25 15:53:19;;;;;;;;;;;;;;;;;;5302333;26;89338;-69
2024/04/25 15:55:44;;;;;;;;;;;;;;;;;;5249402;26;87402;-69
2024/04/25 15:58:10;;;;;;;;;;;;;;;;;;5256627;26;87578;-69
2024/04/25 16:00:36;;;;;;;;;;;;;;;;;;5251045;26;87011;-67
2024/04/25 16:03:04;;;;;;;;;;;;;;;;;;5252776;26;87123;-67
2024/04/25 16:05:30;;;;;;;;;;;;;;;;;;5268219;26;88418;-68
2024/04/25 16:07:56;;;;;;;;;;;;;;;;;;5262489;26;88037;-68
2024/04/25 16:10:22;;;;;;;;;;;;;;;;;;5266886;26;87369;-70
2024/04/25 16:12:47;;;;;;;;;;;;;;;;;;5252987;26;87993;-68
2024/04/25 16:15:12;;;;;;;;;;;;;;;;;;5252502;26;87997;-69
2024/04/25 16:17:37;;;;;;;;;;;;;;;;;;5254657;26;86945;-68
2024/04/25 16:20:05;;;;;;;;;;;;;;;;;;5249505;26;87767;-68
2024/04/25 16:22:31;;;;;;;;;;;;;;;;;;5249041;26;88023;-68
2024/04/25 16:24:56;;;;;;;;;;;;;;;;;;5268384;26;86911;-67
2024/04/25 16:27:22;;;;;;;;;;;;;;;;;;5254726;26;89310;-68
2024/04/25 16:29:47;;;;;;;;;;;;;;;;;;5254852;26;87031;-67
2024/04/25 16:32:13;;;;;;;;;;;;;;;;;;5252079;26;87850;-68
2024/04/25 16:34:38;;;;;;;;;;;;;;;;;;5249042;26;87701;-67
2024/04/25 16:37:04;;;;;;;;;;;;;;;;;;5256317;26;87560;-67
2024/04/25 16:39:29;;;;;;;;;;;;;;;;;;5244371;26;87358;-67
2024/04/25 16:41:56;;;;;;;;;;;;;;;;;;5252564;26;87640;-69
2024/04/25 16:44:22;;;;;;;;;;;;;;;;;;5250149;26;87853;-69
2024/04/25 16:46:48;;;;;;;;;;;;;;;;;;5257156;26;87736;-69
2024/04/25 16:49:13;;;;;;;;;;;;;;;;;;5251754;26;87573;-70
2024/04/25 16:51:38;;;;;;;;;;;;;;;;;;5255792;26;87472;-69